Time;durP1;ratioP1;P1;durP2;ratioP2;P2;SDS_P1;SDS_P2;PMS_P1;PMS_P2;Temp;Humidity;BMP_temperature;BMP_pressure;BME280_temperature;BME280_humidity;BME280_pressure;Samples;Min_cycle;Max_cycle;Signal;HPM_P1;HPM_P2
2023/03/22 00:00:51;;;;;;;9.00;5.72;;;9.50;99.90;;;9.69;100.00;100263.09;5009619;28;20052;-77
2023/03/22 00:03:17;;;;;;;9.75;6.07;;;9.40;99.90;;;9.89;100.00;100253.91;5010082;28;20487;-77
2023/03/22 00:05:44;;;;;;;9.93;6.32;;;9.40;99.90;;;10.00;100.00;100250.47;5008764;28;20474;-76
2023/03/22 00:08:12;;;;;;;9.73;6.53;;;9.30;99.90;;;9.87;100.00;100245.97;5009552;28;20504;-76
2023/03/22 00:10:39;;;;;;;;;;;9.30;99.90;;;9.68;100.00;100253.25;5008749;28;20037;-77
2023/03/22 00:13:07;;;;;;;10.27;6.35;;;9.30;99.90;;;9.49;100.00;100257.75;5007578;28;20593;-77
2023/03/22 00:15:33;;;;;;;10.07;6.20;;;9.30;99.90;;;9.70;100.00;100253.00;5008631;28;20034;-78
2023/03/22 00:17:59;;;;;;;9.48;6.68;;;9.30;99.90;;;9.58;100.00;100258.31;5009505;28;20041;-77
2023/03/22 00:20:29;;;;;;;13.00;6.20;;;9.30;99.90;;;9.46;100.00;100252.75;5009804;28;20050;-77
2023/03/22 00:22:56;;;;;;;12.02;6.45;;;9.40;99.90;;;9.75;100.00;100256.75;5009221;28;20474;-78
2023/03/22 00:25:22;;;;;;;12.70;6.97;;;9.40;99.90;;;9.80;100.00;100250.63;5024163;28;20117;-77
2023/03/22 00:27:48;;;;;;;9.82;6.72;;;9.40;99.90;;;9.81;100.00;100252.28;5002399;28;20045;-77
2023/03/22 00:30:14;;;;;;;10.27;6.93;;;9.40;99.90;;;9.80;100.00;100253.34;5022036;28;20485;-77
2023/03/22 00:32:41;;;;;;;11.88;7.38;;;9.30;99.90;;;9.97;100.00;100244.63;5022982;28;20025;-78
2023/03/22 00:35:09;;;;;;;11.75;6.38;;;9.40;99.90;;;9.92;100.00;100237.97;5009331;28;20129;-78
2023/03/22 00:37:37;;;;;;;;;;;9.40;99.90;;;9.99;100.00;100247.97;5006231;28;20040;-78
2023/03/22 00:40:07;;;;;;;11.77;7.50;;;9.30;99.90;;;9.48;100.00;100237.03;5008753;28;19968;-78
2023/03/22 00:42:39;;;;;;;13.95;7.90;;;9.30;99.90;;;9.63;100.00;100244.88;5020712;28;20035;-79
2023/03/22 00:45:09;;;;;;;13.45;8.05;;;9.20;99.90;;;9.54;100.00;100238.03;5003628;28;20052;-78
2023/03/22 00:47:35;;;;;;;12.70;7.45;;;9.20;99.90;;;9.33;100.00;100232.72;5006968;28;20039;-77
2023/03/22 00:50:02;;;;;;;12.23;7.60;;;9.10;99.90;;;9.65;100.00;100226.44;5024914;28;20429;-78
2023/03/22 00:52:28;;;;;;;12.98;7.72;;;9.10;99.90;;;9.67;100.00;100227.03;5009592;28;20056;-78
2023/03/22 00:54:55;;;;;;;12.05;7.78;;;9.10;99.90;;;9.55;100.00;100226.94;5022340;28;20081;-78
2023/03/22 00:57:21;;;;;;;13.00;7.70;;;9.10;99.90;;;9.52;100.00;100202.03;5009545;28;20033;-78
2023/03/22 00:59:46;;;;;;;13.70;8.02;;;9.10;99.90;;;9.39;100.00;100205.69;5010033;28;20037;-78
2023/03/22 01:02:13;;;;;;;14.75;8.48;;;9.00;99.90;;;9.55;100.00;100216.06;5000224;28;20400;-78
2023/03/22 01:04:46;;;;;;;13.38;8.57;;;9.10;99.90;;;9.53;100.00;100212.69;5002168;28;20034;-78
2023/03/22 01:07:16;;;;;;;13.05;8.60;;;9.00;99.90;;;9.52;100.00;100205.56;5023830;28;20121;-78
2023/03/22 01:09:47;;;;;;;16.60;9.60;;;9.10;99.90;;;9.53;100.00;100203.69;5007417;28;20447;-79
2023/03/22 01:12:14;;;;;;;13.95;9.20;;;9.10;99.90;;;9.58;100.00;100206.59;5008589;28;20042;-79
2023/03/22 01:14:42;;;;;;;16.88;9.38;;;9.00;99.90;;;9.57;100.00;100208.50;5024203;28;20053;-78
2023/03/22 01:17:09;;;;;;;15.18;8.75;;;9.00;99.90;;;9.49;100.00;100197.84;5008182;28;20030;-78
2023/03/22 01:19:36;;;;;;;14.80;9.57;;;9.10;99.90;;;9.38;100.00;100204.84;5012489;28;20046;-78
2023/03/22 01:22:06;;;;;;;15.60;10.02;;;9.10;99.90;;;9.26;100.00;100204.69;5011792;28;20038;-78
2023/03/22 01:24:32;;;;;;;13.77;9.40;;;9.10;99.90;;;9.29;100.00;100195.28;5027439;28;20080;-79
2023/03/22 01:26:58;;;;;;;17.65;10.27;;;9.20;99.90;;;9.48;100.00;100188.00;5011699;28;20044;-78
2023/03/22 01:29:25;;;;;;;15.48;9.18;;;9.20;99.90;;;9.53;100.00;100182.72;5012265;28;20034;-79
2023/03/22 01:31:51;;;;;;;14.38;9.38;;;9.30;99.90;;;9.62;100.00;100183.28;5026011;28;20034;-78
2023/03/22 01:34:17;;;;;;;15.60;9.65;;;9.30;99.90;;;9.42;100.00;100181.59;5011924;28;20029;-78
2023/03/22 01:36:43;;;;;;;15.23;9.13;;;9.30;99.90;;;9.48;100.00;100191.59;5010461;28;20034;-77
2023/03/22 01:39:09;;;;;;;15.98;10.18;;;9.30;99.90;;;9.53;100.00;100192.81;5011025;28;20030;-76
2023/03/22 01:41:36;;;;;;;17.52;10.32;;;9.30;99.90;;;9.45;100.00;100183.00;5010366;28;20128;-78
2023/03/22 01:44:21;;;;;;;16.00;10.10;;;9.40;99.90;;;9.51;100.00;100193.00;5007646;28;20037;-78
2023/03/22 01:46:50;;;;;;;18.67;10.65;;;9.40;99.90;;;9.44;100.00;100167.72;5006326;28;20493;-78
2023/03/22 01:49:33;;;;;;;14.93;10.45;;;9.40;99.90;;;9.85;100.00;100182.69;5008730;28;20085;-77
2023/03/22 01:52:10;;;;;;;15.13;10.50;;;9.40;99.90;;;9.81;100.00;100172.47;5027389;28;20509;-77
2023/03/22 01:54:54;;;;;;;16.35;10.45;;;9.40;99.90;;;9.93;100.00;100170.66;5008251;28;20034;-77
2023/03/22 01:57:41;;;;;;;15.82;9.93;;;9.40;99.90;;;9.90;100.00;100166.50;5012435;28;20133;-77
2023/03/22 02:00:14;;;;;;;15.18;10.13;;;9.50;99.90;;;9.92;100.00;100158.09;5010771;28;20395;-78
2023/03/22 02:02:55;;;;;;;16.63;11.27;;;9.50;99.90;;;9.97;100.00;100168.31;5027139;28;20916;-78
2023/03/22 02:05:30;;;;;;;19.05;10.82;;;9.50;99.90;;;9.90;100.00;100166.50;5024648;28;20036;-77
2023/03/22 02:07:58;;;;;;;17.58;10.80;;;9.50;99.90;;;9.72;100.00;100161.00;4991900;28;20038;-77
2023/03/22 02:10:27;;;;;;;19.13;11.55;;;9.50;99.90;;;9.89;100.00;100166.72;5005579;28;20029;-77
2023/03/22 02:13:22;;;;;;;18.92;11.45;;;9.50;99.90;;;9.99;100.00;100161.59;5005873;28;20030;-77
2023/03/22 02:16:31;;;;;;;19.13;10.90;;;9.50;99.90;;;9.92;100.00;100169.00;5026321;28;20352;-78
2023/03/22 02:19:36;;;;;;;18.42;11.73;;;9.50;99.90;;;9.95;100.00;100154.09;5007245;28;20107;-77
2023/03/22 02:22:27;;;;;;;17.00;11.15;;;9.60;99.90;;;9.89;100.00;100159.38;4993592;28;20050;-78
2023/03/22 02:25:39;;;;;;;18.67;11.60;;;9.50;99.90;;;9.90;100.00;100155.59;5008931;28;20133;-78
2023/03/22 02:28:22;;;;;;;19.48;11.35;;;9.50;99.90;;;9.95;100.00;100159.53;5004532;28;20038;-78
2023/03/22 02:31:27;;;;;;;18.67;12.48;;;9.50;99.90;;;9.89;100.00;100156.66;5017429;28;20083;-77
2023/03/22 02:34:27;;;;;;;18.70;11.30;;;9.50;99.90;;;9.76;100.00;100159.50;5004442;28;20038;-77
2023/03/22 02:37:33;;;;;;;;;;;9.50;99.90;;;9.69;100.00;100148.69;5006360;28;20359;-77
2023/03/22 02:40:11;;;;;;;21.60;11.95;;;9.50;99.90;;;9.70;100.00;100146.78;5001108;28;19992;-77
2023/03/22 02:42:46;;;;;;;18.08;11.60;;;9.40;99.90;;;9.68;100.00;100154.34;5003893;28;20038;-77
2023/03/22 02:45:22;;;;;;;20.73;11.90;;;9.40;99.90;;;9.64;100.00;100143.91;5019786;28;20038;-75
2023/03/22 02:48:25;;;;;;;19.38;12.25;;;9.40;99.90;;;9.67;100.00;100141.78;5006561;28;20054;-76
2023/03/22 02:50:55;;;;;;;20.17;13.02;;;9.40;99.90;;;9.64;100.00;100140.31;5020236;28;20026;-77
2023/03/22 02:53:40;;;;;;;21.42;12.68;;;9.40;99.90;;;9.63;100.00;100141.38;5008227;28;20500;-76
2023/03/22 02:56:38;;;;;;;19.30;12.75;;;9.40;99.90;;;9.58;100.00;100144.78;5010964;28;20481;-77
2023/03/22 02:59:10;;;;;;;21.83;13.50;;;9.40;99.90;;;9.70;100.00;100149.50;5008375;28;20033;-75
2023/03/22 03:01:48;;;;;;;21.75;13.85;;;9.40;99.90;;;9.86;100.00;100142.66;5008575;28;20105;-76
2023/03/22 03:04:27;;;;;;;21.52;13.45;;;9.40;99.90;;;9.93;100.00;100144.25;5010094;28;20115;-77
2023/03/22 03:06:59;;;;;;;20.95;13.07;;;9.40;99.90;;;9.73;100.00;100141.72;4993209;28;20026;-77
2023/03/22 03:09:26;;;;;;;21.48;12.73;;;9.50;99.90;;;9.72;100.00;100139.22;5006435;28;20026;-77
2023/03/22 03:11:53;;;;;;;19.40;12.35;;;9.50;99.90;;;9.69;100.00;100136.94;5003786;28;20045;-77
2023/03/22 03:14:30;;;;;;;23.15;13.93;;;9.50;99.90;;;9.71;100.00;100145.72;5025749;28;20074;-76
2023/03/22 03:17:11;;;;;;;19.67;13.23;;;9.50;99.90;;;9.64;100.00;100143.06;5003405;28;20038;-77
2023/03/22 03:19:48;;;;;;;21.48;13.35;;;9.40;99.90;;;9.74;100.00;100128.94;5004133;28;20094;-77
2023/03/22 03:22:43;;;;;;;21.58;13.00;;;9.40;99.90;;;9.79;100.00;100135.38;5009347;28;20056;-77
2023/03/22 03:25:28;;;;;;;23.08;13.60;;;9.50;99.90;;;9.78;100.00;100136.44;5004496;28;20097;-77
2023/03/22 03:28:21;;;;;;;23.45;13.40;;;9.50;99.90;;;9.79;100.00;100132.66;5007498;28;20049;-77
2023/03/22 03:31:27;;;;;;;20.60;14.00;;;9.40;99.90;;;9.82;100.00;100131.38;5010562;28;20065;-77
2023/03/22 03:34:14;;;;;;;21.25;13.50;;;9.50;99.90;;;9.77;100.00;100133.91;5007479;28;20045;-77
2023/03/22 03:36:52;;;;;;;20.10;13.20;;;9.50;99.90;;;9.75;100.00;100133.31;5022706;28;20048;-78
2023/03/22 03:39:20;;;;;;;21.30;12.88;;;9.50;99.90;;;9.78;100.00;100128.25;5025556;28;20254;-76
2023/03/22 03:41:50;;;;;;;24.05;13.80;;;9.50;99.90;;;9.93;100.00;100124.34;5008117;28;20406;-77
2023/03/22 03:44:18;;;;;;;20.77;13.35;;;9.40;99.90;;;9.74;100.00;100120.75;5024851;28;20208;-77
2023/03/22 03:46:45;;;;;;;;;;;9.40;99.90;;;10.05;100.00;100118.97;5010228;28;20057;-76
2023/03/22 03:49:14;;;;;;;24.70;14.00;;;9.50;99.90;;;9.94;100.00;100109.66;5005714;28;19964;-77
2023/03/22 03:52:00;;;;;;;24.33;13.52;;;9.50;99.90;;;9.89;100.00;100102.19;5024616;28;20639;-76
2023/03/22 03:54:29;;;;;;;23.60;14.05;;;9.50;99.90;;;9.97;100.00;100102.94;5009975;28;20076;-77
2023/03/22 03:56:55;;;;;;;22.95;13.25;;;9.50;99.90;;;9.86;100.00;100097.19;5007838;28;20037;-77
2023/03/22 03:59:21;;;;;;;19.25;12.73;;;9.50;99.90;;;9.91;100.00;100094.59;5003967;28;20034;-77
2023/03/22 04:01:50;;;;;;;21.13;12.70;;;9.60;99.90;;;9.98;100.00;100100.00;5007916;28;20041;-77
2023/03/22 04:04:27;;;;;;;19.95;12.77;;;9.60;99.90;;;9.89;100.00;100102.19;5008161;28;20069;-77
2023/03/22 04:07:04;;;;;;;21.27;12.52;;;9.60;99.90;;;9.97;100.00;100092.03;5009773;28;20068;-77
2023/03/22 04:09:35;;;;;;;21.60;13.95;;;9.60;99.90;;;9.96;100.00;100104.00;5022364;28;20100;-76
2023/03/22 04:12:21;;;;;;;;;;;9.60;99.90;;;9.88;100.00;100100.50;5020889;28;20112;-77
2023/03/22 04:15:07;;;;;;;19.30;12.13;;;9.60;99.90;;;9.93;100.00;100095.22;5005330;28;19917;-76
2023/03/22 04:17:33;;;;;;;20.33;13.40;;;9.60;99.90;;;9.88;100.00;100088.75;5006930;28;20393;-78
2023/03/22 04:20:04;;;;;;;20.33;12.60;;;9.60;99.90;;;9.90;100.00;100090.22;5004071;28;20133;-77
2023/03/22 04:22:33;;;;;;;21.33;12.45;;;9.60;99.90;;;9.85;100.00;100087.34;4985008;28;20113;-78
2023/03/22 04:25:00;;;;;;;23.80;13.80;;;9.60;99.90;;;9.96;100.00;100090.38;5007628;28;20501;-78
2023/03/22 04:27:26;;;;;;;22.13;14.10;;;9.60;99.90;;;9.88;100.00;100084.16;5024495;28;20065;-78
2023/03/22 04:29:59;;;;;;;19.90;13.27;;;9.60;99.90;;;9.93;100.00;100080.72;5009934;28;20061;-78
2023/03/22 04:32:48;;;;;;;19.10;12.98;;;9.60;99.90;;;9.90;100.00;100081.19;5006924;28;20445;-77
2023/03/22 04:35:17;;;;;;;20.60;12.45;;;9.60;99.90;;;9.89;100.00;100074.06;5008542;28;20034;-77
2023/03/22 04:37:44;;;;;;;20.08;13.07;;;9.60;99.90;;;9.89;100.00;100080.38;5024673;28;20128;-78
2023/03/22 04:40:19;;;;;;;23.35;13.65;;;9.60;99.90;;;9.90;100.00;100079.31;5024937;28;20056;-78
2023/03/22 04:43:05;;;;;;;22.50;12.57;;;9.60;99.90;;;9.87;100.00;100070.75;5009273;28;20079;-77
2023/03/22 04:45:56;;;;;;;21.48;12.07;;;9.60;99.90;;;9.91;100.00;100083.72;5009228;28;20069;-78
2023/03/22 04:48:26;;;;;;;23.13;12.98;;;9.60;99.90;;;9.88;100.00;100069.69;5024295;28;20121;-78
2023/03/22 04:50:53;;;;;;;21.55;12.90;;;9.60;99.90;;;9.87;100.00;100082.50;5025001;28;20188;-77
2023/03/22 04:53:26;;;;;;;19.20;13.10;;;9.70;99.90;;;9.92;100.00;100084.53;4995004;28;20386;-78
2023/03/22 04:55:57;;;;;;;23.40;13.95;;;9.60;99.90;;;9.94;100.00;100076.94;5013688;28;20034;-77
2023/03/22 04:58:25;;;;;;;21.60;13.35;;;9.60;99.90;;;9.99;100.00;100076.28;5028572;28;20052;-77
2023/03/22 05:00:52;;;;;;;20.65;13.07;;;9.70;99.90;;;9.99;100.00;100092.63;5011903;28;20034;-78
2023/03/22 05:03:20;;;;;;;22.42;13.35;;;9.70;99.90;;;9.96;100.00;100080.31;5028024;28;20505;-77
2023/03/22 05:05:57;;;;;;;25.27;13.95;;;9.70;99.90;;;10.05;100.00;100080.81;5025271;28;20428;-77
2023/03/22 05:08:30;;;;;;;21.50;13.80;;;9.70;99.90;;;10.00;100.00;100073.34;5012822;28;20091;-78
2023/03/22 05:11:02;;;;;;;22.65;13.07;;;9.70;99.90;;;10.05;100.00;100068.03;4995919;28;20033;-78
2023/03/22 05:13:28;;;;;;;18.98;12.63;;;9.80;99.90;;;9.95;100.00;100064.16;5011398;28;20029;-79
2023/03/22 05:15:54;;;;;;;22.35;13.93;;;9.80;99.90;;;10.06;100.00;100079.75;5026666;28;20029;-78
2023/03/22 05:18:29;;;;;;;21.98;13.45;;;9.80;99.90;;;10.03;100.00;100075.59;5027703;28;20529;-78
2023/03/22 05:20:57;;;;;;;22.48;13.20;;;9.80;99.90;;;10.06;100.00;100068.84;5006737;28;20066;-79
2023/03/22 05:23:24;;;;;;;21.88;14.00;;;9.80;99.90;;;10.05;100.00;100061.75;5026360;28;20041;-78
2023/03/22 05:25:53;;;;;;;21.90;13.13;;;9.80;99.90;;;10.01;100.00;100052.34;5008414;28;20033;-79
2023/03/22 05:28:21;;;;;;;21.50;13.53;;;9.80;99.90;;;10.04;100.00;100071.81;5028735;28;20453;-79
2023/03/22 05:31:13;;;;;;;20.10;12.65;;;9.80;99.90;;;10.01;100.00;100076.88;5009803;28;20382;-77
2023/03/22 05:33:52;;;;;;;25.67;14.23;;;9.80;99.90;;;10.05;100.00;100073.50;5010961;28;20033;-77
2023/03/22 05:36:24;;;;;;;21.08;13.05;;;9.80;99.90;;;10.10;100.00;100069.25;5010651;28;20038;-77
2023/03/22 05:39:08;;;;;;;20.20;13.50;;;9.90;99.90;;;10.10;100.00;100061.91;5011401;28;20494;-78
2023/03/22 05:41:34;;;;;;;22.70;13.30;;;9.90;99.90;;;10.12;100.00;100072.56;5009033;28;20041;-78
2023/03/22 05:44:00;;;;;;;25.42;14.52;;;9.90;99.90;;;10.12;100.00;100057.06;5012015;28;20089;-78
2023/03/22 05:46:26;;;;;;;21.90;12.65;;;9.90;99.90;;;10.13;100.00;100064.19;5026156;28;20443;-76
2023/03/22 05:49:12;;;;;;;22.17;12.65;;;9.90;99.90;;;10.12;100.00;100056.22;5010223;28;20125;-78
2023/03/22 05:51:41;;;;;;;23.83;13.38;;;9.90;99.90;;;10.18;100.00;100050.69;5005342;28;20030;-79
2023/03/22 05:54:08;;;;;;;20.98;13.07;;;10.00;99.90;;;10.07;100.00;100070.53;5024487;28;20132;-76
2023/03/22 05:56:41;;;;;;;20.77;13.52;;;9.90;99.90;;;10.21;100.00;100052.94;5011583;28;20061;-78
2023/03/22 05:59:07;;;;;;;19.58;12.70;;;10.00;99.90;;;10.19;100.00;100052.34;4995315;28;20103;-78
2023/03/22 06:01:33;;;;;;;18.88;12.75;;;10.00;99.90;;;10.25;100.00;100047.88;5010776;28;20033;-78
2023/03/22 06:04:25;;;;;;;22.00;12.73;;;10.00;99.90;;;10.14;100.00;100048.63;5007394;28;20037;-78
2023/03/22 06:06:59;;;;;;;20.98;13.23;;;10.00;99.90;;;10.22;100.00;100034.72;5012267;28;20560;-78
2023/03/22 06:09:37;;;;;;;22.13;12.45;;;10.10;99.90;;;10.27;100.00;100034.00;5022685;28;20034;-78
2023/03/22 06:12:07;;;;;;;18.70;12.60;;;10.00;99.90;;;10.26;100.00;100030.47;5011079;28;20038;-77
2023/03/22 06:14:33;;;;;;;21.17;12.80;;;10.10;99.90;;;10.31;100.00;100027.03;5010660;28;20038;-78
2023/03/22 06:17:10;;;;;;;21.83;12.45;;;10.10;99.90;;;10.28;100.00;100024.78;5010403;28;20053;-78
2023/03/22 06:19:36;;;;;;;22.08;12.50;;;10.10;99.90;;;10.33;100.00;100035.81;5003394;28;20041;-82
2023/03/22 06:22:08;;;;;;;20.25;12.30;;;10.20;99.90;;;10.39;100.00;100039.53;5026873;28;20041;-77
2023/03/22 06:24:35;;;;;;;21.63;12.85;;;10.20;99.90;;;10.39;100.00;100026.72;4999263;28;20034;-78
2023/03/22 06:27:03;;;;;;;20.52;11.95;;;10.30;99.90;;;10.37;100.00;100039.75;5006520;28;20394;-77
2023/03/22 06:29:30;;;;;;;20.83;12.10;;;10.30;99.90;;;10.36;100.00;100032.66;5004219;28;20033;-79
2023/03/22 06:31:59;;;;;;;19.85;12.13;;;10.30;99.90;;;10.46;100.00;100041.13;5010165;28;20084;-77
2023/03/22 06:34:25;;;;;;;21.67;12.27;;;10.30;99.90;;;10.46;100.00;100035.69;4985623;28;20039;-78
2023/03/22 06:36:54;;;;;;;20.73;12.70;;;10.40;99.90;;;10.53;100.00;100026.56;4993947;28;20394;-79
2023/03/22 06:39:30;;;;;;;19.95;12.48;;;10.40;99.90;;;10.58;100.00;100032.16;5005670;28;20101;-79
2023/03/22 06:41:57;;;;;;;18.48;11.70;;;10.40;99.90;;;10.64;100.00;100020.34;5010347;28;20040;-78
2023/03/22 06:44:23;;;;;;;18.98;11.25;;;10.50;99.90;;;10.68;100.00;100032.44;5026750;28;20429;-81
2023/03/22 06:46:51;;;;;;;18.63;12.07;;;10.60;99.90;;;10.82;100.00;100027.59;5011001;28;20073;-77
2023/03/22 06:49:30;;;;;;;20.58;11.63;;;10.70;99.90;;;11.00;100.00;100034.88;5008031;28;20033;-77
2023/03/22 06:51:57;;;;;;;18.95;12.23;;;10.80;99.90;;;11.12;99.65;100031.31;5007406;28;20041;-78
2023/03/22 06:54:22;;;;;;;17.70;11.52;;;10.90;99.90;;;11.21;99.54;100036.19;5009664;28;20030;-77
2023/03/22 06:56:48;;;;;;;19.73;12.10;;;11.00;99.90;;;11.20;98.85;100017.34;4992971;28;20045;-77
2023/03/22 06:59:14;;;;;;;19.23;12.02;;;11.00;99.90;;;11.36;97.75;100032.19;4981312;28;20077;-79
2023/03/22 07:01:40;;;;;;;19.55;11.68;;;11.10;99.90;;;11.34;97.56;100026.94;5009719;28;20088;-79
2023/03/22 07:04:06;;;;;;;19.92;11.82;;;11.10;99.90;;;11.12;97.90;100018.53;5009210;28;20501;-76
2023/03/22 07:06:31;;;;;;;17.38;10.85;;;11.20;99.90;;;11.14;98.95;100031.91;5011363;28;20042;-79
2023/03/22 07:08:58;;;;;;;19.27;11.63;;;11.20;99.90;;;11.19;99.25;100027.41;5025961;28;20026;-79
2023/03/22 07:11:28;;;;;;;19.65;11.75;;;11.20;99.90;;;11.14;98.26;100019.13;5002461;28;20042;-78
2023/03/22 07:14:00;;;;;;;17.88;10.77;;;11.20;99.90;;;11.19;99.13;100029.34;5024217;28;20560;-78
2023/03/22 07:16:34;;;;;;;19.40;11.23;;;11.20;99.90;;;11.19;98.49;100032.06;5009473;28;20026;-76
2023/03/22 07:19:02;;;;;;;18.90;11.55;;;11.10;99.90;;;11.10;98.82;100015.19;5026035;28;20038;-78
2023/03/22 07:21:28;;;;;;;20.90;11.80;;;11.10;99.90;;;11.06;98.90;100025.75;5010761;28;20048;-78
2023/03/22 07:23:59;;;;;;;19.83;11.65;;;11.00;99.90;;;11.08;98.96;100026.34;5015832;28;20117;-78
2023/03/22 07:26:29;;;;;;;21.15;11.20;;;11.00;99.90;;;10.92;99.54;100019.66;5022520;28;20509;-76
2023/03/22 07:28:56;;;;;;;19.88;11.85;;;11.00;99.90;;;11.16;99.64;100030.63;5004364;28;20034;-77
2023/03/22 07:31:28;;;;;;;20.30;11.93;;;11.00;99.90;;;11.59;96.40;100027.78;5009131;28;20481;-77
2023/03/22 07:34:00;;;;;;;17.67;11.15;;;11.10;99.90;;;11.33;97.30;100019.81;5026499;28;20041;-80
2023/03/22 07:36:29;;;;;;;19.92;11.65;;;11.20;99.90;;;11.41;96.97;100036.94;5026121;28;20045;-78
2023/03/22 07:38:55;;;;;;;20.55;11.48;;;11.40;99.90;;;11.41;96.91;100031.47;5010567;28;20041;-77
2023/03/22 07:41:29;;;;;;;19.08;11.65;;;11.50;99.90;;;11.70;95.01;100020.66;4998263;28;20052;-78
2023/03/22 07:44:13;;;;;;;19.63;12.07;;;11.60;99.90;;;12.23;93.08;100008.66;5010699;28;20049;-77
2023/03/22 07:46:42;;;;;;;16.92;11.32;;;11.80;99.90;;;12.26;92.43;100020.19;5006000;28;20041;-78
2023/03/22 07:49:35;;;;;;;16.77;10.73;;;11.90;99.90;;;12.13;92.66;100013.09;5009605;28;20034;-78
2023/03/22 07:52:11;;;;;;;15.10;9.82;;;12.00;99.90;;;12.19;91.96;100010.19;5026302;28;20029;-76
2023/03/22 07:54:37;;;;;;;20.88;10.70;;;12.10;99.90;;;12.37;92.27;100001.00;5018068;28;20044;-78
2023/03/22 07:57:05;;;;;;;15.27;10.05;;;12.30;99.90;;;12.34;91.48;100009.69;5005253;28;20038;-75
2023/03/22 07:59:35;;;;;;;16.48;9.40;;;12.30;99.90;;;12.31;90.80;99995.66;4993105;28;20026;-77
2023/03/22 08:02:02;;;;;;;14.98;10.02;;;12.40;99.90;;;12.45;90.39;100018.09;5009049;28;20512;-76
2023/03/22 08:04:39;;;;;;;16.95;9.93;;;12.30;99.90;;;12.49;90.00;100006.41;5009012;28;20036;-76
2023/03/22 12:29:50;;;;;;;5.43;2.20;;;19.60;90.50;;;19.59;45.90;99799.09;3410218;23;20045;-77
2023/03/22 12:32:23;;;;;;;4.00;1.60;;;;;;;20.40;42.71;99775.16;4879131;29;20388;-75
2023/03/22 12:34:52;;;;;;;3.67;1.60;;;;;;;20.41;42.27;99780.41;4879993;29;20044;-76
2023/03/22 12:37:26;;;;;;;3.67;1.63;;;19.30;90.50;;;19.16;42.00;99771.50;4882594;29;20437;-75
2023/03/22 12:40:01;;;;;;;4.65;1.75;;;19.60;82.10;;;20.20;41.63;99785.50;4871086;29;20066;-76
2023/03/22 12:42:37;;;;;;;3.55;1.50;;;;;;;20.04;41.74;99761.94;4881779;29;20041;-75
2023/03/22 12:45:21;;;;;;;5.40;1.80;;;19.80;83.10;;;18.68;43.51;99773.09;4873234;29;20500;-73
2023/03/22 12:47:54;;;;;;;3.33;1.48;;;19.00;82.50;;;18.16;44.61;99784.63;4874009;29;20033;-75
2023/03/22 12:50:40;;;;;;;4.85;1.65;;;18.30;85.10;;;17.26;45.76;99792.91;4879789;29;20077;-76
2023/03/22 12:53:14;;;;;;;3.30;1.77;;;17.60;87.00;;;17.04;46.72;99777.56;4872105;29;20101;-74
2023/03/22 12:55:41;;;;;;;5.63;1.80;;;17.10;89.10;;;16.97;47.06;99793.50;4879122;29;20104;-74
2023/03/22 12:58:11;;;;;;;4.88;1.58;;;17.00;90.10;;;16.26;48.45;99798.88;4882714;29;20411;-75
2023/03/22 13:00:47;;;;;;;4.82;1.85;;;16.50;90.30;;;16.02;49.92;99782.91;4881698;29;20128;-75
2023/03/22 13:03:16;;;;;;;4.15;1.63;;;16.20;91.60;;;16.48;50.25;99798.59;4875735;29;20460;-75
2023/03/22 13:05:45;;;;;;;3.65;1.65;;;16.30;93.20;;;16.49;49.06;99786.50;4859174;29;20073;-76
2023/03/22 13:08:11;;;;;;;6.43;1.75;;;16.20;91.80;;;16.54;49.42;99775.47;4877576;29;20087;-75
2023/03/22 13:10:47;;;;;;;8.00;1.60;;;16.50;92.30;;;16.54;49.26;99788.38;4883800;29;20537;-75
2023/03/22 13:13:22;;;;;;;6.30;1.80;;;16.40;92.20;;;16.67;50.84;99792.50;4847441;29;20105;-74
2023/03/22 13:16:12;;;;;;;4.90;1.58;;;16.40;93.60;;;16.66;50.05;99777.06;4865343;29;20040;-75
2023/03/22 13:18:44;;;;;;;5.68;2.05;;;16.40;93.00;;;16.53;49.67;99771.06;4863071;29;20569;-74
2023/03/22 13:21:23;;;;;;;6.43;1.60;;;16.40;92.50;;;17.07;48.99;99763.22;4860085;29;20113;-75
2023/03/22 13:24:08;;;;;;;6.97;1.80;;;16.70;92.50;;;17.03;47.88;99745.59;4860511;29;20496;-74
2023/03/22 13:26:48;;;;;;;4.97;1.67;;;17.00;91.60;;;16.83;48.60;99750.06;4876241;29;20032;-74
2023/03/22 13:29:35;;;;;;;4.43;1.67;;;16.80;91.60;;;17.17;48.24;99750.50;4826164;29;1408916;-75
2023/03/22 13:32:05;;;;;;;4.07;1.60;;;17.00;91.50;;;17.07;47.71;99748.59;4874171;29;20056;-75
2023/03/22 13:34:48;;;;;;;4.72;1.70;;;17.00;91.20;;;16.89;46.81;99725.25;4875690;29;20111;-75
2023/03/22 13:38:02;;;;;;;3.90;1.55;;;17.10;90.10;;;16.64;48.28;99749.00;4877151;29;20077;-74
2023/03/22 13:40:55;;;;;;;6.38;1.70;;;16.70;91.00;;;16.79;49.59;99770.16;4786804;29;20580;-74
2023/03/22 13:43:31;;;;;;;7.75;1.98;;;16.70;92.70;;;16.73;49.28;99754.75;4872673;29;20405;-74
2023/03/22 13:46:35;;;;;;;6.32;1.60;;;16.60;92.20;;;16.39;48.98;99748.78;4877902;29;20060;-75
2023/03/22 13:49:00;;;;;;;5.05;1.65;;;16.50;91.40;;;16.25;49.45;99754.03;4873944;29;20052;-75
2023/03/22 13:51:31;;;;;;;4.25;1.67;;;16.30;92.10;;;16.22;50.94;99762.00;4874135;29;20033;-74
2023/03/22 13:54:22;;;;;;;6.13;2.00;;;16.20;93.30;;;16.23;51.69;99758.16;4863222;29;20473;-75
2023/03/22 13:56:59;;;;;;;6.32;2.33;;;16.20;94.20;;;15.91;53.46;99779.34;4870963;29;20128;-73
2023/03/22 13:59:32;;;;;;;6.50;2.28;;;15.90;95.40;;;15.80;54.07;99774.91;4872106;29;20065;-74
2023/03/22 14:02:28;;;;;;;7.03;2.30;;;15.80;96.00;;;15.60;54.74;99768.25;4879457;29;20053;-73
2023/03/22 14:05:02;;;;;;;8.43;2.00;;;15.60;96.60;;;15.51;55.10;99769.91;4875177;29;20441;-74
2023/03/22 14:07:52;;;;;;;6.70;2.33;;;15.50;97.30;;;15.38;55.30;99768.50;4873424;29;20073;-73
2023/03/22 14:10:41;;;;;;;5.10;2.10;;;15.40;97.80;;;15.38;55.73;99784.97;4874388;29;20044;-74
2023/03/22 14:13:45;;;;;;;5.72;2.17;;;15.30;98.30;;;15.18;56.41;99785.75;4872300;29;20079;-74
2023/03/22 14:16:39;;;;;;;7.35;2.08;;;15.10;98.80;;;15.42;56.17;99783.34;4875250;29;20519;-74
2023/03/22 14:19:12;;;;;;;7.28;2.28;;;15.10;99.10;;;15.22;56.48;99795.91;4853788;29;20090;-74
2023/03/22 14:21:42;;;;;;;6.85;2.30;;;15.10;99.40;;;15.20;57.69;99798.09;4868838;29;20041;-73
2023/03/22 14:24:16;;;;;;;5.63;2.17;;;15.10;99.90;;;15.13;58.33;99804.97;4869708;29;20064;-73
2023/03/22 14:26:52;;;;;;;7.03;2.67;;;15.10;99.90;;;14.85;61.18;99806.97;4852185;29;20049;-74
2023/03/22 14:29:22;;;;;;;6.40;2.55;;;14.90;99.90;;;14.78;63.18;99813.53;4867754;29;20108;-74
2023/03/22 14:32:02;;;;;;;6.10;2.42;;;14.70;99.90;;;14.71;66.21;99823.94;4874083;29;20568;-75
2023/03/22 14:34:37;;;;;;;6.45;2.38;;;14.50;99.90;;;14.49;69.05;99833.09;4871133;29;20036;-73
2023/03/22 14:37:07;;;;;;;7.95;2.80;;;14.30;99.90;;;14.40;73.85;99840.16;4867562;29;20045;-74
2023/03/22 14:39:43;;;;;;;7.28;3.03;;;14.10;99.90;;;14.09;72.85;99829.75;4868126;29;20045;-73
2023/03/22 14:42:21;;;;;;;7.25;3.20;;;13.90;99.90;;;13.98;74.17;99832.66;4851386;29;20127;-73
2023/03/22 14:44:56;;;;;;;8.43;2.80;;;13.70;99.90;;;14.02;76.41;99836.53;4877995;29;20501;-74
2023/03/22 14:47:32;;;;;;;7.45;2.80;;;13.60;99.90;;;14.04;78.39;99826.13;4876939;29;20066;-73
2023/03/22 14:50:05;;;;;;;7.63;2.70;;;13.60;99.90;;;14.07;78.84;99820.13;4872321;29;20523;-73
2023/03/22 14:52:34;;;;;;;5.03;2.85;;;13.60;99.90;;;14.15;76.96;99813.31;4873363;29;20047;-73
2023/03/22 14:55:12;;;;;;;6.28;2.63;;;13.70;99.90;;;14.26;74.67;99817.00;4877105;29;20123;-73
2023/03/22 14:57:48;;;;;;;6.13;2.47;;;13.80;99.90;;;14.28;75.56;99803.84;4876698;29;20091;-73
2023/03/22 15:00:18;;;;;;;8.98;2.72;;;13.90;99.90;;;14.37;74.60;99802.28;4876179;29;20041;-73
2023/03/22 15:02:55;;;;;;;5.47;2.30;;;13.90;99.90;;;14.39;74.37;99820.13;4876133;29;20484;-73